sensor_id;sensor_type;location;lat;lon;timestamp;P1;durP1;ratioP1;P2;durP2;ratioP2
43962;SDS011;29622;45.534;9.242;2023-09-12T00:01:04;34.33;;;19.52;;
43962;SDS011;29622;45.534;9.242;2023-09-12T00:06:06;31.95;;;20.52;;
43962;SDS011;29622;45.534;9.242;2023-09-12T00:11:07;33.08;;;21.13;;
43962;SDS011;29622;45.534;9.242;2023-09-12T00:16:11;31.38;;;23.63;;
43962;SDS011;29622;45.534;9.242;2023-09-12T00:21:11;36.65;;;23.42;;
43962;SDS011;29622;45.534;9.242;2023-09-12T00:26:12;36.58;;;24.10;;
43962;SDS011;29622;45.534;9.242;2023-09-12T00:31:13;34.72;;;23.60;;
43962;SDS011;29622;45.534;9.242;2023-09-12T00:36:14;34.97;;;23.73;;
43962;SDS011;29622;45.534;9.242;2023-09-12T00:41:14;46.67;;;24.67;;
43962;SDS011;29622;45.534;9.242;2023-09-12T00:46:18;35.03;;;20.80;;
43962;SDS011;29622;45.534;9.242;2023-09-12T00:51:19;33.95;;;21.52;;
43962;SDS011;29622;45.534;9.242;2023-09-12T00:56:21;29.52;;;22.08;;
43962;SDS011;29622;45.534;9.242;2023-09-12T01:01:21;31.48;;;21.05;;
43962;SDS011;29622;45.534;9.242;2023-09-12T01:06:24;27.63;;;19.23;;
43962;SDS011;29622;45.534;9.242;2023-09-12T01:11:28;27.92;;;18.42;;
43962;SDS011;29622;45.534;9.242;2023-09-12T01:16:29;29.35;;;15.68;;
43962;SDS011;29622;45.534;9.242;2023-09-12T01:31:47;30.63;;;16.60;;
43962;SDS011;29622;45.534;9.242;2023-09-12T01:36:50;30.23;;;20.75;;
43962;SDS011;29622;45.534;9.242;2023-09-12T01:41:51;37.08;;;22.25;;
43962;SDS011;29622;45.534;9.242;2023-09-12T01:46:54;33.63;;;21.45;;
43962;SDS011;29622;45.534;9.242;2023-09-12T01:52:00;38.00;;;23.33;;
43962;SDS011;29622;45.534;9.242;2023-09-12T01:57:02;33.67;;;22.83;;
43962;SDS011;29622;45.534;9.242;2023-09-12T02:02:03;31.60;;;21.02;;
43962;SDS011;29622;45.534;9.242;2023-09-12T02:07:04;32.40;;;18.15;;
43962;SDS011;29622;45.534;9.242;2023-09-12T02:12:04;27.55;;;17.88;;
43962;SDS011;29622;45.534;9.242;2023-09-12T02:17:05;26.05;;;18.50;;
43962;SDS011;29622;45.534;9.242;2023-09-12T02:22:06;30.88;;;20.10;;
43962;SDS011;29622;45.534;9.242;2023-09-12T02:27:07;26.25;;;18.58;;
43962;SDS011;29622;45.534;9.242;2023-09-12T02:32:08;30.98;;;19.67;;
43962;SDS011;29622;45.534;9.242;2023-09-12T02:37:09;27.45;;;19.35;;
43962;SDS011;29622;45.534;9.242;2023-09-12T02:42:10;32.90;;;21.20;;
43962;SDS011;29622;45.534;9.242;2023-09-12T02:47:11;36.75;;;21.25;;
43962;SDS011;29622;45.534;9.242;2023-09-12T02:52:11;29.85;;;20.15;;
43962;SDS011;29622;45.534;9.242;2023-09-12T02:57:12;30.40;;;21.05;;
43962;SDS011;29622;45.534;9.242;2023-09-12T03:02:13;31.63;;;22.77;;
43962;SDS011;29622;45.534;9.242;2023-09-12T03:07:13;32.40;;;22.10;;
43962;SDS011;29622;45.534;9.242;2023-09-12T03:12:14;41.92;;;22.48;;
43962;SDS011;29622;45.534;9.242;2023-09-12T03:17:15;34.33;;;21.50;;
43962;SDS011;29622;45.534;9.242;2023-09-12T03:22:15;34.90;;;21.08;;
43962;SDS011;29622;45.534;9.242;2023-09-12T03:27:16;31.17;;;19.05;;
43962;SDS011;29622;45.534;9.242;2023-09-12T03:32:17;28.63;;;19.17;;
43962;SDS011;29622;45.534;9.242;2023-09-12T03:37:18;26.17;;;19.05;;
43962;SDS011;29622;45.534;9.242;2023-09-12T03:42:19;29.05;;;18.77;;
43962;SDS011;29622;45.534;9.242;2023-09-12T03:47:20;32.28;;;19.67;;
43962;SDS011;29622;45.534;9.242;2023-09-12T03:52:20;32.03;;;20.33;;
43962;SDS011;29622;45.534;9.242;2023-09-12T03:57:21;29.35;;;20.02;;
43962;SDS011;29622;45.534;9.242;2023-09-12T04:02:22;28.33;;;19.55;;
43962;SDS011;29622;45.534;9.242;2023-09-12T04:07:23;34.55;;;20.50;;
43962;SDS011;29622;45.534;9.242;2023-09-12T04:12:24;29.58;;;18.58;;
43962;SDS011;29622;45.534;9.242;2023-09-12T04:17:24;32.05;;;18.75;;
43962;SDS011;29622;45.534;9.242;2023-09-12T04:22:25;25.55;;;17.52;;
43962;SDS011;29622;45.534;9.242;2023-09-12T04:27:26;25.55;;;16.58;;
43962;SDS011;29622;45.534;9.242;2023-09-12T04:32:27;27.27;;;16.15;;
43962;SDS011;29622;45.534;9.242;2023-09-12T04:37:27;34.50;;;20.10;;
43962;SDS011;29622;45.534;9.242;2023-09-12T04:42:28;28.65;;;19.52;;
43962;SDS011;29622;45.534;9.242;2023-09-12T04:47:29;30.60;;;19.33;;
43962;SDS011;29622;45.534;9.242;2023-09-12T04:52:29;28.02;;;20.13;;
43962;SDS011;29622;45.534;9.242;2023-09-12T04:57:30;30.17;;;19.58;;
43962;SDS011;29622;45.534;9.242;2023-09-12T05:02:31;33.38;;;19.60;;
43962;SDS011;29622;45.534;9.242;2023-09-12T05:07:31;30.23;;;20.25;;
43962;SDS011;29622;45.534;9.242;2023-09-12T05:12:32;41.05;;;20.80;;
43962;SDS011;29622;45.534;9.242;2023-09-12T05:17:33;28.58;;;18.58;;
43962;SDS011;29622;45.534;9.242;2023-09-12T05:22:34;26.98;;;18.70;;
43962;SDS011;29622;45.534;9.242;2023-09-12T05:27:35;29.25;;;20.38;;
43962;SDS011;29622;45.534;9.242;2023-09-12T05:32:35;30.05;;;19.33;;
43962;SDS011;29622;45.534;9.242;2023-09-12T05:37:36;30.35;;;20.08;;
43962;SDS011;29622;45.534;9.242;2023-09-12T05:42:37;27.13;;;17.83;;
43962;SDS011;29622;45.534;9.242;2023-09-12T05:47:38;22.73;;;16.27;;
43962;SDS011;29622;45.534;9.242;2023-09-12T05:52:39;27.92;;;18.88;;
43962;SDS011;29622;45.534;9.242;2023-09-12T05:57:42;41.35;;;19.83;;
43962;SDS011;29622;45.534;9.242;2023-09-12T06:02:42;33.42;;;20.13;;
43962;SDS011;29622;45.534;9.242;2023-09-12T06:07:43;32.10;;;21.63;;
43962;SDS011;29622;45.534;9.242;2023-09-12T06:12:44;32.17;;;21.63;;
43962;SDS011;29622;45.534;9.242;2023-09-12T06:17:44;32.67;;;21.58;;
43962;SDS011;29622;45.534;9.242;2023-09-12T06:22:45;36.42;;;24.27;;
43962;SDS011;29622;45.534;9.242;2023-09-12T06:27:45;40.22;;;22.27;;
43962;SDS011;29622;45.534;9.242;2023-09-12T06:32:46;35.03;;;23.48;;
43962;SDS011;29622;45.534;9.242;2023-09-12T06:37:47;29.33;;;18.67;;
43962;SDS011;29622;45.534;9.242;2023-09-12T06:42:47;39.42;;;24.13;;
43962;SDS011;29622;45.534;9.242;2023-09-12T06:47:48;47.75;;;25.42;;
43962;SDS011;29622;45.534;9.242;2023-09-12T06:52:49;30.55;;;21.00;;
43962;SDS011;29622;45.534;9.242;2023-09-12T06:57:49;45.33;;;21.95;;
43962;SDS011;29622;45.534;9.242;2023-09-12T07:02:50;31.88;;;20.02;;
43962;SDS011;29622;45.534;9.242;2023-09-12T07:07:51;36.78;;;21.00;;
43962;SDS011;29622;45.534;9.242;2023-09-12T07:12:52;36.58;;;17.63;;
43962;SDS011;29622;45.534;9.242;2023-09-12T07:17:53;33.33;;;19.08;;
43962;SDS011;29622;45.534;9.242;2023-09-12T07:22:56;45.25;;;20.13;;
43962;SDS011;29622;45.534;9.242;2023-09-12T07:27:57;22.42;;;14.82;;
43962;SDS011;29622;45.534;9.242;2023-09-12T07:32:57;34.92;;;20.80;;
43962;SDS011;29622;45.534;9.242;2023-09-12T07:37:58;24.65;;;16.15;;
43962;SDS011;29622;45.534;9.242;2023-09-12T07:42:59;25.55;;;17.08;;
43962;SDS011;29622;45.534;9.242;2023-09-12T07:48:00;21.17;;;12.52;;
43962;SDS011;29622;45.534;9.242;2023-09-12T07:53:01;22.20;;;13.80;;
43962;SDS011;29622;45.534;9.242;2023-09-12T07:58:02;18.25;;;12.05;;
43962;SDS011;29622;45.534;9.242;2023-09-12T08:03:03;23.30;;;14.38;;
43962;SDS011;29622;45.534;9.242;2023-09-12T08:08:04;31.52;;;14.55;;
43962;SDS011;29622;45.534;9.242;2023-09-12T08:13:04;32.95;;;17.95;;
43962;SDS011;29622;45.534;9.242;2023-09-12T08:18:05;26.42;;;16.75;;
43962;SDS011;29622;45.534;9.242;2023-09-12T08:23:06;25.23;;;16.55;;
43962;SDS011;29622;45.534;9.242;2023-09-12T08:28:07;30.20;;;19.88;;
43962;SDS011;29622;45.534;9.242;2023-09-12T08:33:08;23.40;;;15.65;;
43962;SDS011;29622;45.534;9.242;2023-09-12T08:38:08;25.77;;;16.73;;
43962;SDS011;29622;45.534;9.242;2023-09-12T08:43:09;22.42;;;14.57;;
43962;SDS011;29622;45.534;9.242;2023-09-12T08:48:11;28.75;;;18.88;;
43962;SDS011;29622;45.534;9.242;2023-09-12T08:53:15;30.63;;;18.00;;
43962;SDS011;29622;45.534;9.242;2023-09-12T08:58:16;30.02;;;18.50;;
43962;SDS011;29622;45.534;9.242;2023-09-12T09:03:17;30.17;;;17.30;;
43962;SDS011;29622;45.534;9.242;2023-09-12T09:08:20;42.30;;;22.25;;
43962;SDS011;29622;45.534;9.242;2023-09-12T09:13:22;41.38;;;21.42;;
43962;SDS011;29622;45.534;9.242;2023-09-12T09:18:23;34.10;;;17.85;;
43962;SDS011;29622;45.534;9.242;2023-09-12T09:23:25;33.55;;;18.70;;
43962;SDS011;29622;45.534;9.242;2023-09-12T09:28:25;23.95;;;16.98;;
43962;SDS011;29622;45.534;9.242;2023-09-12T09:33:26;36.85;;;18.85;;
43962;SDS011;29622;45.534;9.242;2023-09-12T09:38:27;30.85;;;18.90;;
43962;SDS011;29622;45.534;9.242;2023-09-12T09:43:28;25.55;;;17.33;;
43962;SDS011;29622;45.534;9.242;2023-09-12T09:48:31;39.15;;;21.90;;
43962;SDS011;29622;45.534;9.242;2023-09-12T09:53:32;47.75;;;22.35;;
43962;SDS011;29622;45.534;9.242;2023-09-12T09:58:33;30.95;;;18.85;;
43962;SDS011;29622;45.534;9.242;2023-09-12T10:03:34;54.55;;;26.45;;
43962;SDS011;29622;45.534;9.242;2023-09-12T10:08:36;49.05;;;22.80;;
43962;SDS011;29622;45.534;9.242;2023-09-12T10:13:41;37.05;;;25.33;;
43962;SDS011;29622;45.534;9.242;2023-09-12T10:19:08;31.10;;;18.85;;
43962;SDS011;29622;45.534;9.242;2023-09-12T10:24:11;25.55;;;17.60;;
43962;SDS011;29622;45.534;9.242;2023-09-12T10:29:13;19.63;;;12.45;;
43962;SDS011;29622;45.534;9.242;2023-09-12T10:34:17;26.42;;;13.18;;
43962;SDS011;29622;45.534;9.242;2023-09-12T10:39:20;21.25;;;10.88;;
43962;SDS011;29622;45.534;9.242;2023-09-12T10:44:22;17.92;;;10.00;;
43962;SDS011;29622;45.534;9.242;2023-09-12T10:49:24;18.30;;;9.85;;
43962;SDS011;29622;45.534;9.242;2023-09-12T10:54:25;14.35;;;8.32;;
43962;SDS011;29622;45.534;9.242;2023-09-12T10:59:44;15.18;;;8.23;;
43962;SDS011;29622;45.534;9.242;2023-09-12T11:05:03;10.30;;;7.47;;
43962;SDS011;29622;45.534;9.242;2023-09-12T11:15:21;15.40;;;8.10;;
43962;SDS011;29622;45.534;9.242;2023-09-12T11:20:26;11.63;;;7.47;;
43962;SDS011;29622;45.534;9.242;2023-09-12T11:26:03;14.07;;;7.55;;
43962;SDS011;29622;45.534;9.242;2023-09-12T11:31:07;14.07;;;8.63;;
43962;SDS011;29622;45.534;9.242;2023-09-12T11:36:08;12.55;;;8.02;;
43962;SDS011;29622;45.534;9.242;2023-09-12T11:41:13;11.60;;;7.15;;
43962;SDS011;29622;45.534;9.242;2023-09-12T11:46:14;13.80;;;7.15;;
43962;SDS011;29622;45.534;9.242;2023-09-12T11:51:15;12.18;;;7.68;;
43962;SDS011;29622;45.534;9.242;2023-09-12T11:56:16;11.75;;;6.63;;
43962;SDS011;29622;45.534;9.242;2023-09-12T12:01:50;11.45;;;5.78;;
43962;SDS011;29622;45.534;9.242;2023-09-12T12:06:44;8.85;;;6.30;;
43962;SDS011;29622;45.534;9.242;2023-09-12T12:11:45;12.05;;;6.43;;
43962;SDS011;29622;45.534;9.242;2023-09-12T12:16:46;10.82;;;6.75;;
43962;SDS011;29622;45.534;9.242;2023-09-12T12:21:47;11.13;;;6.78;;
43962;SDS011;29622;45.534;9.242;2023-09-12T12:26:48;11.57;;;6.80;;
43962;SDS011;29622;45.534;9.242;2023-09-12T12:31:48;15.57;;;6.95;;
43962;SDS011;29622;45.534;9.242;2023-09-12T12:36:49;11.07;;;6.68;;
43962;SDS011;29622;45.534;9.242;2023-09-12T12:41:53;13.50;;;5.43;;
43962;SDS011;29622;45.534;9.242;2023-09-12T12:46:54;7.90;;;5.20;;
43962;SDS011;29622;45.534;9.242;2023-09-12T12:51:55;12.13;;;5.80;;
43962;SDS011;29622;45.534;9.242;2023-09-12T12:56:56;8.65;;;5.63;;
43962;SDS011;29622;45.534;9.242;2023-09-12T13:01:57;14.23;;;5.80;;
43962;SDS011;29622;45.534;9.242;2023-09-12T13:06:58;11.00;;;4.88;;
43962;SDS011;29622;45.534;9.242;2023-09-12T13:11:59;6.63;;;4.43;;
43962;SDS011;29622;45.534;9.242;2023-09-12T13:17:04;10.27;;;4.75;;
43962;SDS011;29622;45.534;9.242;2023-09-12T13:22:10;8.05;;;5.18;;
43962;SDS011;29622;45.534;9.242;2023-09-12T13:27:11;9.93;;;4.88;;
43962;SDS011;29622;45.534;9.242;2023-09-12T13:32:14;11.68;;;5.28;;
43962;SDS011;29622;45.534;9.242;2023-09-12T13:37:16;7.38;;;4.47;;
43962;SDS011;29622;45.534;9.242;2023-09-12T13:42:19;6.32;;;4.20;;
43962;SDS011;29622;45.534;9.242;2023-09-12T13:47:22;9.02;;;4.90;;
43962;SDS011;29622;45.534;9.242;2023-09-12T13:52:26;10.68;;;5.07;;
43962;SDS011;29622;45.534;9.242;2023-09-12T13:57:28;7.40;;;4.47;;
43962;SDS011;29622;45.534;9.242;2023-09-12T14:02:29;9.80;;;5.40;;
43962;SDS011;29622;45.534;9.242;2023-09-12T14:07:32;7.70;;;4.57;;
43962;SDS011;29622;45.534;9.242;2023-09-12T14:12:33;8.60;;;4.38;;
43962;SDS011;29622;45.534;9.242;2023-09-12T14:17:34;7.57;;;4.50;;
43962;SDS011;29622;45.534;9.242;2023-09-12T14:22:55;8.73;;;4.60;;
43962;SDS011;29622;45.534;9.242;2023-09-12T14:28:22;6.68;;;4.22;;
43962;SDS011;29622;45.534;9.242;2023-09-12T14:33:28;9.43;;;4.18;;
43962;SDS011;29622;45.534;9.242;2023-09-12T14:38:29;6.18;;;4.35;;
43962;SDS011;29622;45.534;9.242;2023-09-12T14:43:32;9.85;;;4.97;;
43962;SDS011;29622;45.534;9.242;2023-09-12T14:48:33;11.07;;;4.68;;
43962;SDS011;29622;45.534;9.242;2023-09-12T14:53:36;10.65;;;5.40;;
43962;SDS011;29622;45.534;9.242;2023-09-12T14:58:44;10.32;;;4.35;;
43962;SDS011;29622;45.534;9.242;2023-09-12T15:03:44;7.30;;;5.20;;
43962;SDS011;29622;45.534;9.242;2023-09-12T15:08:46;7.05;;;5.03;;
43962;SDS011;29622;45.534;9.242;2023-09-12T15:13:47;9.15;;;5.25;;
43962;SDS011;29622;45.534;9.242;2023-09-12T15:18:48;9.45;;;5.43;;
43962;SDS011;29622;45.534;9.242;2023-09-12T15:23:49;9.57;;;4.70;;
43962;SDS011;29622;45.534;9.242;2023-09-12T15:28:50;6.78;;;4.88;;
43962;SDS011;29622;45.534;9.242;2023-09-12T15:34:12;12.50;;;5.40;;
43962;SDS011;29622;45.534;9.242;2023-09-12T15:39:14;12.05;;;5.50;;
43962;SDS011;29622;45.534;9.242;2023-09-12T15:44:15;11.80;;;5.25;;
43962;SDS011;29622;45.534;9.242;2023-09-12T15:49:16;13.77;;;5.78;;
43962;SDS011;29622;45.534;9.242;2023-09-12T15:54:16;11.25;;;5.13;;
43962;SDS011;29622;45.534;9.242;2023-09-12T15:59:17;9.50;;;5.20;;
43962;SDS011;29622;45.534;9.242;2023-09-12T16:04:18;13.20;;;5.82;;
43962;SDS011;29622;45.534;9.242;2023-09-12T16:09:19;9.15;;;5.00;;
43962;SDS011;29622;45.534;9.242;2023-09-12T16:14:20;9.38;;;5.88;;
43962;SDS011;29622;45.534;9.242;2023-09-12T16:19:21;8.70;;;5.65;;
43962;SDS011;29622;45.534;9.242;2023-09-12T16:24:22;12.25;;;5.97;;
43962;SDS011;29622;45.534;9.242;2023-09-12T16:29:23;8.88;;;5.80;;
43962;SDS011;29622;45.534;9.242;2023-09-12T16:34:33;15.35;;;6.38;;
43962;SDS011;29622;45.534;9.242;2023-09-12T16:39:34;20.20;;;5.65;;
43962;SDS011;29622;45.534;9.242;2023-09-12T16:44:39;9.48;;;5.53;;
43962;SDS011;29622;45.534;9.242;2023-09-12T16:49:41;9.50;;;5.10;;
43962;SDS011;29622;45.534;9.242;2023-09-12T16:54:42;11.13;;;6.25;;
43962;SDS011;29622;45.534;9.242;2023-09-12T16:59:43;8.82;;;5.47;;
43962;SDS011;29622;45.534;9.242;2023-09-12T17:04:45;7.55;;;5.07;;
43962;SDS011;29622;45.534;9.242;2023-09-12T17:09:46;10.13;;;5.00;;
43962;SDS011;29622;45.534;9.242;2023-09-12T17:14:52;6.68;;;5.55;;
43962;SDS011;29622;45.534;9.242;2023-09-12T17:19:53;10.27;;;5.95;;
43962;SDS011;29622;45.534;9.242;2023-09-12T17:24:55;12.75;;;6.13;;
43962;SDS011;29622;45.534;9.242;2023-09-12T17:29:57;13.10;;;6.25;;
43962;SDS011;29622;45.534;9.242;2023-09-12T17:34:58;10.13;;;5.70;;
43962;SDS011;29622;45.534;9.242;2023-09-12T17:40:03;7.75;;;5.00;;
43962;SDS011;29622;45.534;9.242;2023-09-12T17:45:05;18.15;;;7.45;;
43962;SDS011;29622;45.534;9.242;2023-09-12T17:50:09;10.45;;;5.45;;
43962;SDS011;29622;45.534;9.242;2023-09-12T17:55:10;10.93;;;5.78;;
43962;SDS011;29622;45.534;9.242;2023-09-12T18:00:11;9.75;;;6.38;;
43962;SDS011;29622;45.534;9.242;2023-09-12T18:05:15;11.65;;;6.90;;
43962;SDS011;29622;45.534;9.242;2023-09-12T18:10:16;12.13;;;5.90;;
43962;SDS011;29622;45.534;9.242;2023-09-12T18:15:16;11.75;;;6.43;;
43962;SDS011;29622;45.534;9.242;2023-09-12T18:20:17;8.00;;;5.38;;
43962;SDS011;29622;45.534;9.242;2023-09-12T18:25:18;11.50;;;5.07;;
43962;SDS011;29622;45.534;9.242;2023-09-12T18:30:19;9.25;;;4.50;;
43962;SDS011;29622;45.534;9.242;2023-09-12T18:35:19;10.00;;;4.18;;
43962;SDS011;29622;45.534;9.242;2023-09-12T18:40:21;11.30;;;3.92;;
43962;SDS011;29622;45.534;9.242;2023-09-12T18:45:22;7.10;;;3.75;;
43962;SDS011;29622;45.534;9.242;2023-09-12T18:50:24;8.32;;;3.78;;
43962;SDS011;29622;45.534;9.242;2023-09-12T18:55:25;6.60;;;3.85;;
43962;SDS011;29622;45.534;9.242;2023-09-12T19:00:26;4.70;;;3.45;;
43962;SDS011;29622;45.534;9.242;2023-09-12T19:05:27;6.57;;;3.47;;
43962;SDS011;29622;45.534;9.242;2023-09-12T19:10:28;7.90;;;3.80;;
43962;SDS011;29622;45.534;9.242;2023-09-12T19:15:29;4.35;;;2.95;;
43962;SDS011;29622;45.534;9.242;2023-09-12T19:20:30;7.28;;;3.95;;
43962;SDS011;29622;45.534;9.242;2023-09-12T19:25:31;7.57;;;3.50;;
43962;SDS011;29622;45.534;9.242;2023-09-12T19:30:33;6.25;;;3.50;;
43962;SDS011;29622;45.534;9.242;2023-09-12T19:35:37;6.28;;;3.60;;
43962;SDS011;29622;45.534;9.242;2023-09-12T19:40:40;6.47;;;3.78;;
43962;SDS011;29622;45.534;9.242;2023-09-12T19:45:41;8.70;;;4.05;;
43962;SDS011;29622;45.534;9.242;2023-09-12T19:50:46;6.60;;;3.95;;
43962;SDS011;29622;45.534;9.242;2023-09-12T19:55:53;5.88;;;3.55;;
43962;SDS011;29622;45.534;9.242;2023-09-12T20:00:56;6.97;;;3.80;;
43962;SDS011;29622;45.534;9.242;2023-09-12T20:05:58;4.70;;;3.30;;
43962;SDS011;29622;45.534;9.242;2023-09-12T20:11:05;7.65;;;4.50;;
43962;SDS011;29622;45.534;9.242;2023-09-12T20:16:14;6.80;;;3.90;;
43962;SDS011;29622;45.534;9.242;2023-09-12T20:21:15;8.02;;;3.42;;
43962;SDS011;29622;45.534;9.242;2023-09-12T20:26:17;8.20;;;3.53;;
43962;SDS011;29622;45.534;9.242;2023-09-12T20:31:18;10.32;;;3.78;;
43962;SDS011;29622;45.534;9.242;2023-09-12T20:36:19;8.32;;;3.97;;
43962;SDS011;29622;45.534;9.242;2023-09-12T20:41:20;6.88;;;3.22;;
43962;SDS011;29622;45.534;9.242;2023-09-12T20:46:20;7.13;;;3.63;;
43962;SDS011;29622;45.534;9.242;2023-09-12T20:51:21;5.65;;;3.25;;
43962;SDS011;29622;45.534;9.242;2023-09-12T20:56:22;10.25;;;3.55;;
43962;SDS011;29622;45.534;9.242;2023-09-12T21:01:23;14.95;;;4.40;;
43962;SDS011;29622;45.534;9.242;2023-09-12T21:06:24;8.38;;;3.70;;
43962;SDS011;29622;45.534;9.242;2023-09-12T21:11:32;9.93;;;3.90;;
43962;SDS011;29622;45.534;9.242;2023-09-12T21:16:32;7.80;;;3.53;;
43962;SDS011;29622;45.534;9.242;2023-09-12T21:21:33;7.20;;;3.75;;
43962;SDS011;29622;45.534;9.242;2023-09-12T21:26:34;5.40;;;3.33;;
43962;SDS011;29622;45.534;9.242;2023-09-12T21:31:35;7.95;;;3.83;;
43962;SDS011;29622;45.534;9.242;2023-09-12T21:36:40;12.88;;;5.45;;
43962;SDS011;29622;45.534;9.242;2023-09-12T21:41:42;9.95;;;4.30;;
43962;SDS011;29622;45.534;9.242;2023-09-12T21:46:42;5.85;;;3.13;;
43962;SDS011;29622;45.534;9.242;2023-09-12T21:51:43;6.85;;;3.47;;
43962;SDS011;29622;45.534;9.242;2023-09-12T21:56:44;5.43;;;3.70;;
43962;SDS011;29622;45.534;9.242;2023-09-12T22:01:45;8.05;;;4.22;;
43962;SDS011;29622;45.534;9.242;2023-09-12T22:06:46;6.85;;;4.05;;
43962;SDS011;29622;45.534;9.242;2023-09-12T22:11:46;9.85;;;4.53;;
43962;SDS011;29622;45.534;9.242;2023-09-12T22:16:47;11.38;;;6.28;;
43962;SDS011;29622;45.534;9.242;2023-09-12T22:21:48;7.68;;;4.38;;
43962;SDS011;29622;45.534;9.242;2023-09-12T22:27:00;20.00;;;4.90;;
43962;SDS011;29622;45.534;9.242;2023-09-12T22:32:01;6.50;;;3.70;;
43962;SDS011;29622;45.534;9.242;2023-09-12T22:37:30;6.68;;;3.90;;
43962;SDS011;29622;45.534;9.242;2023-09-12T22:42:32;8.45;;;3.47;;
43962;SDS011;29622;45.534;9.242;2023-09-12T22:47:33;10.38;;;3.67;;
43962;SDS011;29622;45.534;9.242;2023-09-12T22:52:34;9.35;;;4.30;;
43962;SDS011;29622;45.534;9.242;2023-09-12T22:57:35;6.00;;;3.33;;
43962;SDS011;29622;45.534;9.242;2023-09-12T23:02:36;8.93;;;3.92;;
43962;SDS011;29622;45.534;9.242;2023-09-12T23:07:37;6.38;;;3.75;;
43962;SDS011;29622;45.534;9.242;2023-09-12T23:13:08;7.57;;;3.90;;
43962;SDS011;29622;45.534;9.242;2023-09-12T23:18:10;7.60;;;3.60;;
43962;SDS011;29622;45.534;9.242;2023-09-12T23:23:12;7.30;;;3.80;;
43962;SDS011;29622;45.534;9.242;2023-09-12T23:28:16;7.53;;;3.25;;
43962;SDS011;29622;45.534;9.242;2023-09-12T23:33:17;7.28;;;3.42;;
43962;SDS011;29622;45.534;9.242;2023-09-12T23:38:46;6.15;;;2.88;;
43962;SDS011;29622;45.534;9.242;2023-09-12T23:43:49;8.68;;;4.25;;
43962;SDS011;29622;45.534;9.242;2023-09-12T23:48:50;10.55;;;4.30;;
43962;SDS011;29622;45.534;9.242;2023-09-12T23:53:51;5.95;;;3.83;;
43962;SDS011;29622;45.534;9.242;2023-09-12T23:58:52;6.70;;;4.22;;
